sensor_id;sensor_type;location;lat;lon;timestamp;temperature;humidity
51007;DHT22;37034;47.886;-3.904;2023-12-22T00:00:19;13.80;99.90
51007;DHT22;37034;47.886;-3.904;2023-12-22T00:02:44;13.90;99.90
51007;DHT22;37034;47.886;-3.904;2023-12-22T00:05:10;14.00;99.90
51007;DHT22;37034;47.886;-3.904;2023-12-22T00:07:36;13.90;99.90
51007;DHT22;37034;47.886;-3.904;2023-12-22T00:10:01;14.00;99.90
51007;DHT22;37034;47.886;-3.904;2023-12-22T00:12:27;14.00;99.90
51007;DHT22;37034;47.886;-3.904;2023-12-22T00:14:53;14.00;99.90
51007;DHT22;37034;47.886;-3.904;2023-12-22T00:17:19;14.00;99.90
51007;DHT22;37034;47.886;-3.904;2023-12-22T00:19:45;14.00;99.90
51007;DHT22;37034;47.886;-3.904;2023-12-22T00:22:10;14.00;99.90
51007;DHT22;37034;47.886;-3.904;2023-12-22T00:24:36;14.10;99.90
51007;DHT22;37034;47.886;-3.904;2023-12-22T00:27:02;14.00;99.90
51007;DHT22;37034;47.886;-3.904;2023-12-22T00:29:28;14.00;99.90
51007;DHT22;37034;47.886;-3.904;2023-12-22T00:31:54;14.10;99.90
51007;DHT22;37034;47.886;-3.904;2023-12-22T00:34:21;14.00;99.90
51007;DHT22;37034;47.886;-3.904;2023-12-22T00:36:47;14.00;99.90
51007;DHT22;37034;47.886;-3.904;2023-12-22T00:39:13;13.80;99.90
51007;DHT22;37034;47.886;-3.904;2023-12-22T00:41:38;13.80;99.90
51007;DHT22;37034;47.886;-3.904;2023-12-22T00:44:04;13.80;99.90
51007;DHT22;37034;47.886;-3.904;2023-12-22T00:46:30;13.90;99.90
51007;DHT22;37034;47.886;-3.904;2023-12-22T00:48:55;13.80;99.90
51007;DHT22;37034;47.886;-3.904;2023-12-22T00:51:21;13.60;99.90
51007;DHT22;37034;47.886;-3.904;2023-12-22T00:53:47;13.60;99.90
51007;DHT22;37034;47.886;-3.904;2023-12-22T00:56:12;13.60;99.90
51007;DHT22;37034;47.886;-3.904;2023-12-22T00:58:39;13.70;99.90
51007;DHT22;37034;47.886;-3.904;2023-12-22T01:01:05;13.70;99.90
51007;DHT22;37034;47.886;-3.904;2023-12-22T01:03:31;13.80;99.90
51007;DHT22;37034;47.886;-3.904;2023-12-22T01:05:56;13.60;99.90
51007;DHT22;37034;47.886;-3.904;2023-12-22T01:08:22;13.60;99.90
51007;DHT22;37034;47.886;-3.904;2023-12-22T01:10:48;13.70;99.90
51007;DHT22;37034;47.886;-3.904;2023-12-22T01:13:13;13.80;99.90
51007;DHT22;37034;47.886;-3.904;2023-12-22T01:15:39;13.90;99.90
51007;DHT22;37034;47.886;-3.904;2023-12-22T01:18:05;13.80;99.90
51007;DHT22;37034;47.886;-3.904;2023-12-22T01:20:30;13.70;99.90
51007;DHT22;37034;47.886;-3.904;2023-12-22T01:22:56;13.60;99.90
51007;DHT22;37034;47.886;-3.904;2023-12-22T01:25:22;13.50;99.90
51007;DHT22;37034;47.886;-3.904;2023-12-22T01:27:47;13.40;99.90
51007;DHT22;37034;47.886;-3.904;2023-12-22T01:30:14;13.40;99.90
51007;DHT22;37034;47.886;-3.904;2023-12-22T01:32:39;13.30;99.90
51007;DHT22;37034;47.886;-3.904;2023-12-22T01:35:05;13.50;99.90
51007;DHT22;37034;47.886;-3.904;2023-12-22T01:37:36;13.30;99.90
51007;DHT22;37034;47.886;-3.904;2023-12-22T01:40:02;13.40;99.90
51007;DHT22;37034;47.886;-3.904;2023-12-22T01:42:28;13.50;99.90
51007;DHT22;37034;47.886;-3.904;2023-12-22T01:44:54;13.30;99.90
51007;DHT22;37034;47.886;-3.904;2023-12-22T01:47:20;13.40;99.90
51007;DHT22;37034;47.886;-3.904;2023-12-22T01:49:46;13.50;99.90
51007;DHT22;37034;47.886;-3.904;2023-12-22T01:52:12;13.60;99.90
51007;DHT22;37034;47.886;-3.904;2023-12-22T01:54:38;13.60;99.90
51007;DHT22;37034;47.886;-3.904;2023-12-22T01:57:04;13.60;99.90
51007;DHT22;37034;47.886;-3.904;2023-12-22T01:59:31;13.70;99.90
51007;DHT22;37034;47.886;-3.904;2023-12-22T02:02:03;13.80;99.90
51007;DHT22;37034;47.886;-3.904;2023-12-22T02:04:30;13.70;99.90
51007;DHT22;37034;47.886;-3.904;2023-12-22T02:07:01;13.70;99.90
51007;DHT22;37034;47.886;-3.904;2023-12-22T02:09:27;13.60;99.90
51007;DHT22;37034;47.886;-3.904;2023-12-22T02:11:53;13.70;99.90
51007;DHT22;37034;47.886;-3.904;2023-12-22T02:14:19;13.60;99.90
51007;DHT22;37034;47.886;-3.904;2023-12-22T02:16:46;13.70;99.90
51007;DHT22;37034;47.886;-3.904;2023-12-22T02:19:41;13.70;99.90
51007;DHT22;37034;47.886;-3.904;2023-12-22T02:22:08;13.40;99.90
51007;DHT22;37034;47.886;-3.904;2023-12-22T02:24:34;13.50;99.90
51007;DHT22;37034;47.886;-3.904;2023-12-22T02:29:51;13.60;99.90
51007;DHT22;37034;47.886;-3.904;2023-12-22T02:32:23;13.60;99.90
51007;DHT22;37034;47.886;-3.904;2023-12-22T02:34:53;13.50;99.90
51007;DHT22;37034;47.886;-3.904;2023-12-22T02:37:21;13.30;99.90
51007;DHT22;37034;47.886;-3.904;2023-12-22T02:39:48;13.40;99.90
51007;DHT22;37034;47.886;-3.904;2023-12-22T02:42:15;13.40;99.90
51007;DHT22;37034;47.886;-3.904;2023-12-22T02:44:40;13.50;99.90
51007;DHT22;37034;47.886;-3.904;2023-12-22T02:47:06;13.40;99.90
51007;DHT22;37034;47.886;-3.904;2023-12-22T02:49:32;13.40;99.90
51007;DHT22;37034;47.886;-3.904;2023-12-22T02:51:57;13.40;99.90
51007;DHT22;37034;47.886;-3.904;2023-12-22T02:54:23;13.40;99.90
51007;DHT22;37034;47.886;-3.904;2023-12-22T02:56:48;13.30;99.90
51007;DHT22;37034;47.886;-3.904;2023-12-22T02:59:14;13.40;99.90
51007;DHT22;37034;47.886;-3.904;2023-12-22T03:01:40;13.50;99.90
51007;DHT22;37034;47.886;-3.904;2023-12-22T03:04:05;13.50;99.90
51007;DHT22;37034;47.886;-3.904;2023-12-22T03:06:31;13.60;99.90
51007;DHT22;37034;47.886;-3.904;2023-12-22T03:08:56;13.60;99.90
51007;DHT22;37034;47.886;-3.904;2023-12-22T03:11:22;13.50;99.90
51007;DHT22;37034;47.886;-3.904;2023-12-22T03:13:48;13.40;99.90
51007;DHT22;37034;47.886;-3.904;2023-12-22T03:16:13;13.40;99.90
51007;DHT22;37034;47.886;-3.904;2023-12-22T03:18:39;13.50;99.90
51007;DHT22;37034;47.886;-3.904;2023-12-22T03:21:05;13.40;99.90
51007;DHT22;37034;47.886;-3.904;2023-12-22T03:23:31;13.40;99.90
51007;DHT22;37034;47.886;-3.904;2023-12-22T03:25:56;13.50;99.90
51007;DHT22;37034;47.886;-3.904;2023-12-22T03:28:22;13.50;99.90
51007;DHT22;37034;47.886;-3.904;2023-12-22T03:30:47;13.50;99.90
51007;DHT22;37034;47.886;-3.904;2023-12-22T03:33:13;13.60;99.90
51007;DHT22;37034;47.886;-3.904;2023-12-22T03:35:39;13.60;99.90
51007;DHT22;37034;47.886;-3.904;2023-12-22T03:38:04;13.60;99.90
51007;DHT22;37034;47.886;-3.904;2023-12-22T03:40:30;13.50;99.90
51007;DHT22;37034;47.886;-3.904;2023-12-22T03:42:55;13.40;99.90
51007;DHT22;37034;47.886;-3.904;2023-12-22T03:45:21;13.30;99.90
51007;DHT22;37034;47.886;-3.904;2023-12-22T03:47:47;13.20;99.90
51007;DHT22;37034;47.886;-3.904;2023-12-22T03:50:13;13.00;99.90
51007;DHT22;37034;47.886;-3.904;2023-12-22T03:52:38;13.00;99.90
51007;DHT22;37034;47.886;-3.904;2023-12-22T03:55:04;13.10;99.90
51007;DHT22;37034;47.886;-3.904;2023-12-22T03:57:30;13.10;99.90
51007;DHT22;37034;47.886;-3.904;2023-12-22T03:59:55;13.10;99.90
51007;DHT22;37034;47.886;-3.904;2023-12-22T04:02:21;13.20;99.90
51007;DHT22;37034;47.886;-3.904;2023-12-22T04:04:47;13.40;99.90
51007;DHT22;37034;47.886;-3.904;2023-12-22T04:07:13;13.20;99.90
51007;DHT22;37034;47.886;-3.904;2023-12-22T04:09:38;12.90;99.90
51007;DHT22;37034;47.886;-3.904;2023-12-22T04:12:05;13.00;99.90
51007;DHT22;37034;47.886;-3.904;2023-12-22T04:14:30;13.20;99.90
51007;DHT22;37034;47.886;-3.904;2023-12-22T04:16:56;13.10;99.90
51007;DHT22;37034;47.886;-3.904;2023-12-22T04:19:22;13.20;99.90
51007;DHT22;37034;47.886;-3.904;2023-12-22T04:21:48;13.30;99.90
51007;DHT22;37034;47.886;-3.904;2023-12-22T04:24:14;13.20;99.90
51007;DHT22;37034;47.886;-3.904;2023-12-22T04:26:39;13.00;99.90
51007;DHT22;37034;47.886;-3.904;2023-12-22T04:29:05;13.00;99.90
51007;DHT22;37034;47.886;-3.904;2023-12-22T04:31:31;13.20;99.90
51007;DHT22;37034;47.886;-3.904;2023-12-22T04:33:56;13.20;99.90
51007;DHT22;37034;47.886;-3.904;2023-12-22T04:36:22;13.30;99.90
51007;DHT22;37034;47.886;-3.904;2023-12-22T04:38:47;13.40;99.90
51007;DHT22;37034;47.886;-3.904;2023-12-22T04:41:13;13.10;99.90
51007;DHT22;37034;47.886;-3.904;2023-12-22T04:43:39;13.10;99.90
51007;DHT22;37034;47.886;-3.904;2023-12-22T04:46:04;13.00;99.90
51007;DHT22;37034;47.886;-3.904;2023-12-22T04:48:30;13.10;99.90
51007;DHT22;37034;47.886;-3.904;2023-12-22T04:50:58;13.10;99.90
51007;DHT22;37034;47.886;-3.904;2023-12-22T04:53:24;13.10;99.90
51007;DHT22;37034;47.886;-3.904;2023-12-22T04:55:49;13.10;99.90
51007;DHT22;37034;47.886;-3.904;2023-12-22T04:58:15;13.20;99.90
51007;DHT22;37034;47.886;-3.904;2023-12-22T05:00:40;13.30;99.90
51007;DHT22;37034;47.886;-3.904;2023-12-22T05:03:06;13.20;99.90
51007;DHT22;37034;47.886;-3.904;2023-12-22T05:05:32;13.00;99.90
51007;DHT22;37034;47.886;-3.904;2023-12-22T05:07:57;12.90;99.90
51007;DHT22;37034;47.886;-3.904;2023-12-22T05:10:23;13.10;99.90
51007;DHT22;37034;47.886;-3.904;2023-12-22T05:12:48;13.20;99.90
51007;DHT22;37034;47.886;-3.904;2023-12-22T05:15:14;13.10;99.90
51007;DHT22;37034;47.886;-3.904;2023-12-22T05:17:40;12.80;99.90
51007;DHT22;37034;47.886;-3.904;2023-12-22T05:20:06;12.50;99.90
51007;DHT22;37034;47.886;-3.904;2023-12-22T05:22:32;12.50;99.90
51007;DHT22;37034;47.886;-3.904;2023-12-22T05:24:58;12.60;99.90
51007;DHT22;37034;47.886;-3.904;2023-12-22T05:27:26;12.60;99.90
51007;DHT22;37034;47.886;-3.904;2023-12-22T05:29:52;12.60;99.90
51007;DHT22;37034;47.886;-3.904;2023-12-22T05:32:17;12.60;99.90
51007;DHT22;37034;47.886;-3.904;2023-12-22T05:34:43;12.70;99.90
51007;DHT22;37034;47.886;-3.904;2023-12-22T05:37:09;12.60;99.90
51007;DHT22;37034;47.886;-3.904;2023-12-22T05:39:34;12.70;99.90
51007;DHT22;37034;47.886;-3.904;2023-12-22T05:42:00;12.60;99.90
51007;DHT22;37034;47.886;-3.904;2023-12-22T05:44:25;12.70;99.90
51007;DHT22;37034;47.886;-3.904;2023-12-22T05:46:55;12.70;99.90
51007;DHT22;37034;47.886;-3.904;2023-12-22T05:49:21;12.60;99.90
51007;DHT22;37034;47.886;-3.904;2023-12-22T05:51:47;12.50;99.90
51007;DHT22;37034;47.886;-3.904;2023-12-22T05:54:12;12.50;99.90
51007;DHT22;37034;47.886;-3.904;2023-12-22T05:56:38;12.70;99.90
51007;DHT22;37034;47.886;-3.904;2023-12-22T05:59:04;12.60;99.90
51007;DHT22;37034;47.886;-3.904;2023-12-22T06:01:31;12.70;99.90
51007;DHT22;37034;47.886;-3.904;2023-12-22T06:03:56;12.60;99.90
51007;DHT22;37034;47.886;-3.904;2023-12-22T06:06:22;12.70;99.90
51007;DHT22;37034;47.886;-3.904;2023-12-22T06:08:48;12.70;99.90
51007;DHT22;37034;47.886;-3.904;2023-12-22T06:11:14;12.80;99.90
51007;DHT22;37034;47.886;-3.904;2023-12-22T06:13:40;12.90;99.90
51007;DHT22;37034;47.886;-3.904;2023-12-22T06:16:06;12.80;99.90
51007;DHT22;37034;47.886;-3.904;2023-12-22T06:18:31;13.00;99.90
51007;DHT22;37034;47.886;-3.904;2023-12-22T06:20:57;12.90;99.90
51007;DHT22;37034;47.886;-3.904;2023-12-22T06:23:22;12.80;99.90
51007;DHT22;37034;47.886;-3.904;2023-12-22T06:25:48;12.70;99.90
51007;DHT22;37034;47.886;-3.904;2023-12-22T06:28:13;12.90;99.90
51007;DHT22;37034;47.886;-3.904;2023-12-22T06:30:42;12.60;99.90
51007;DHT22;37034;47.886;-3.904;2023-12-22T06:33:08;12.70;99.90
51007;DHT22;37034;47.886;-3.904;2023-12-22T06:35:34;12.60;99.90
51007;DHT22;37034;47.886;-3.904;2023-12-22T06:37:59;12.80;99.90
51007;DHT22;37034;47.886;-3.904;2023-12-22T06:40:29;12.90;99.90
51007;DHT22;37034;47.886;-3.904;2023-12-22T06:42:54;12.90;99.90
51007;DHT22;37034;47.886;-3.904;2023-12-22T06:45:20;12.80;99.90
51007;DHT22;37034;47.886;-3.904;2023-12-22T06:47:46;12.80;99.90
51007;DHT22;37034;47.886;-3.904;2023-12-22T06:50:11;12.80;99.90
51007;DHT22;37034;47.886;-3.904;2023-12-22T06:52:37;12.80;99.90
51007;DHT22;37034;47.886;-3.904;2023-12-22T06:55:02;12.80;99.90
51007;DHT22;37034;47.886;-3.904;2023-12-22T06:57:28;12.80;99.90
51007;DHT22;37034;47.886;-3.904;2023-12-22T06:59:54;12.80;99.90
51007;DHT22;37034;47.886;-3.904;2023-12-22T07:02:19;12.90;99.90
51007;DHT22;37034;47.886;-3.904;2023-12-22T07:07:50;13.00;99.90
51007;DHT22;37034;47.886;-3.904;2023-12-22T07:10:16;13.00;99.90
51007;DHT22;37034;47.886;-3.904;2023-12-22T07:12:42;13.00;99.90
51007;DHT22;37034;47.886;-3.904;2023-12-22T07:15:08;12.90;99.90
51007;DHT22;37034;47.886;-3.904;2023-12-22T07:17:34;12.90;99.90
51007;DHT22;37034;47.886;-3.904;2023-12-22T07:19:59;12.90;99.90
51007;DHT22;37034;47.886;-3.904;2023-12-22T07:22:28;12.90;99.90
51007;DHT22;37034;47.886;-3.904;2023-12-22T07:24:54;13.00;99.90
51007;DHT22;37034;47.886;-3.904;2023-12-22T07:27:21;13.10;99.90
51007;DHT22;37034;47.886;-3.904;2023-12-22T07:29:46;13.10;99.90
51007;DHT22;37034;47.886;-3.904;2023-12-22T07:32:12;13.10;99.90
51007;DHT22;37034;47.886;-3.904;2023-12-22T07:34:38;13.10;99.90
51007;DHT22;37034;47.886;-3.904;2023-12-22T07:37:03;13.00;99.90
51007;DHT22;37034;47.886;-3.904;2023-12-22T07:39:30;12.80;99.90
51007;DHT22;37034;47.886;-3.904;2023-12-22T07:41:56;12.70;99.90
51007;DHT22;37034;47.886;-3.904;2023-12-22T07:44:21;12.60;99.90
51007;DHT22;37034;47.886;-3.904;2023-12-22T07:46:59;12.70;99.90
51007;DHT22;37034;47.886;-3.904;2023-12-22T07:49:24;12.60;99.90
51007;DHT22;37034;47.886;-3.904;2023-12-22T07:51:51;12.60;99.90
51007;DHT22;37034;47.886;-3.904;2023-12-22T07:54:17;12.60;99.90
51007;DHT22;37034;47.886;-3.904;2023-12-22T07:56:43;12.60;99.90
51007;DHT22;37034;47.886;-3.904;2023-12-22T07:59:09;12.50;99.90
51007;DHT22;37034;47.886;-3.904;2023-12-22T08:01:35;12.50;99.90
51007;DHT22;37034;47.886;-3.904;2023-12-22T08:04:00;12.30;99.90
51007;DHT22;37034;47.886;-3.904;2023-12-22T08:06:26;12.40;99.90
51007;DHT22;37034;47.886;-3.904;2023-12-22T08:08:51;12.50;99.90
51007;DHT22;37034;47.886;-3.904;2023-12-22T08:11:17;12.40;99.90
51007;DHT22;37034;47.886;-3.904;2023-12-22T08:13:45;12.40;99.90
51007;DHT22;37034;47.886;-3.904;2023-12-22T08:16:10;12.50;99.90
51007;DHT22;37034;47.886;-3.904;2023-12-22T08:18:36;12.60;99.90
51007;DHT22;37034;47.886;-3.904;2023-12-22T08:21:02;12.50;99.90
51007;DHT22;37034;47.886;-3.904;2023-12-22T08:23:27;12.70;99.90
51007;DHT22;37034;47.886;-3.904;2023-12-22T08:25:53;12.80;99.90
51007;DHT22;37034;47.886;-3.904;2023-12-22T08:28:18;12.80;99.90
51007;DHT22;37034;47.886;-3.904;2023-12-22T08:30:44;12.80;99.90
51007;DHT22;37034;47.886;-3.904;2023-12-22T08:33:10;12.80;99.90
51007;DHT22;37034;47.886;-3.904;2023-12-22T08:35:36;12.90;99.90
51007;DHT22;37034;47.886;-3.904;2023-12-22T08:38:01;12.90;99.90
51007;DHT22;37034;47.886;-3.904;2023-12-22T08:40:27;13.00;99.90
51007;DHT22;37034;47.886;-3.904;2023-12-22T08:42:53;13.10;99.90
51007;DHT22;37034;47.886;-3.904;2023-12-22T08:45:26;13.10;99.90
51007;DHT22;37034;47.886;-3.904;2023-12-22T08:47:54;13.10;99.90
51007;DHT22;37034;47.886;-3.904;2023-12-22T08:50:19;13.00;99.90
51007;DHT22;37034;47.886;-3.904;2023-12-22T08:52:45;13.20;99.90
51007;DHT22;37034;47.886;-3.904;2023-12-22T08:55:11;13.20;99.90
51007;DHT22;37034;47.886;-3.904;2023-12-22T08:57:36;13.20;99.90
51007;DHT22;37034;47.886;-3.904;2023-12-22T09:00:02;13.30;99.90
51007;DHT22;37034;47.886;-3.904;2023-12-22T09:02:29;13.20;99.90
51007;DHT22;37034;47.886;-3.904;2023-12-22T09:04:54;13.00;99.90
51007;DHT22;37034;47.886;-3.904;2023-12-22T09:07:20;12.90;99.90
51007;DHT22;37034;47.886;-3.904;2023-12-22T09:09:47;12.90;99.90
51007;DHT22;37034;47.886;-3.904;2023-12-22T09:12:13;12.90;99.90
51007;DHT22;37034;47.886;-3.904;2023-12-22T09:14:39;12.80;99.90
51007;DHT22;37034;47.886;-3.904;2023-12-22T09:17:05;13.00;99.90
51007;DHT22;37034;47.886;-3.904;2023-12-22T09:19:32;13.10;99.90
51007;DHT22;37034;47.886;-3.904;2023-12-22T09:21:59;13.20;99.90
51007;DHT22;37034;47.886;-3.904;2023-12-22T09:24:24;13.10;99.90
51007;DHT22;37034;47.886;-3.904;2023-12-22T09:26:50;13.10;99.90
51007;DHT22;37034;47.886;-3.904;2023-12-22T09:29:16;13.10;99.90
51007;DHT22;37034;47.886;-3.904;2023-12-22T09:31:42;12.80;99.90
51007;DHT22;37034;47.886;-3.904;2023-12-22T09:34:08;12.80;99.90
51007;DHT22;37034;47.886;-3.904;2023-12-22T09:36:33;13.00;99.90
51007;DHT22;37034;47.886;-3.904;2023-12-22T09:38:59;13.10;99.90
51007;DHT22;37034;47.886;-3.904;2023-12-22T09:41:25;13.10;99.90
51007;DHT22;37034;47.886;-3.904;2023-12-22T09:43:52;13.00;99.90
51007;DHT22;37034;47.886;-3.904;2023-12-22T09:46:20;13.20;99.90
51007;DHT22;37034;47.886;-3.904;2023-12-22T09:48:48;13.10;99.90
51007;DHT22;37034;47.886;-3.904;2023-12-22T09:51:15;13.10;99.90
51007;DHT22;37034;47.886;-3.904;2023-12-22T09:53:44;13.20;99.90
51007;DHT22;37034;47.886;-3.904;2023-12-22T09:56:11;13.30;99.90
51007;DHT22;37034;47.886;-3.904;2023-12-22T09:58:37;13.40;99.90
51007;DHT22;37034;47.886;-3.904;2023-12-22T10:01:04;13.40;99.90
51007;DHT22;37034;47.886;-3.904;2023-12-22T10:03:32;13.40;99.90
51007;DHT22;37034;47.886;-3.904;2023-12-22T10:05:58;13.50;99.90
51007;DHT22;37034;47.886;-3.904;2023-12-22T10:08:26;13.40;99.90
51007;DHT22;37034;47.886;-3.904;2023-12-22T10:10:52;13.40;99.90
51007;DHT22;37034;47.886;-3.904;2023-12-22T10:13:19;13.50;99.90
51007;DHT22;37034;47.886;-3.904;2023-12-22T10:15:45;13.60;99.90
51007;DHT22;37034;47.886;-3.904;2023-12-22T10:18:12;13.60;99.90
51007;DHT22;37034;47.886;-3.904;2023-12-22T10:20:38;13.60;99.90
51007;DHT22;37034;47.886;-3.904;2023-12-22T10:23:04;13.60;99.90
51007;DHT22;37034;47.886;-3.904;2023-12-22T10:25:30;13.50;99.90
51007;DHT22;37034;47.886;-3.904;2023-12-22T10:27:56;13.50;99.90
51007;DHT22;37034;47.886;-3.904;2023-12-22T10:30:22;13.50;99.90
51007;DHT22;37034;47.886;-3.904;2023-12-22T10:32:53;13.50;99.90
51007;DHT22;37034;47.886;-3.904;2023-12-22T10:35:20;13.50;99.90
51007;DHT22;37034;47.886;-3.904;2023-12-22T10:37:46;13.50;99.90
51007;DHT22;37034;47.886;-3.904;2023-12-22T10:40:18;13.50;99.90
51007;DHT22;37034;47.886;-3.904;2023-12-22T10:42:44;13.60;99.90
51007;DHT22;37034;47.886;-3.904;2023-12-22T10:45:09;13.60;99.90
51007;DHT22;37034;47.886;-3.904;2023-12-22T10:47:35;13.70;99.90
51007;DHT22;37034;47.886;-3.904;2023-12-22T10:50:04;13.60;99.90
51007;DHT22;37034;47.886;-3.904;2023-12-22T10:52:30;13.50;99.90
51007;DHT22;37034;47.886;-3.904;2023-12-22T10:54:57;13.50;99.90
51007;DHT22;37034;47.886;-3.904;2023-12-22T10:57:23;13.60;99.90
51007;DHT22;37034;47.886;-3.904;2023-12-22T10:59:50;13.70;99.90
51007;DHT22;37034;47.886;-3.904;2023-12-22T11:02:17;13.70;99.90
51007;DHT22;37034;47.886;-3.904;2023-12-22T11:05:00;13.80;99.90
51007;DHT22;37034;47.886;-3.904;2023-12-22T11:07:28;13.80;99.90
51007;DHT22;37034;47.886;-3.904;2023-12-22T11:09:57;14.00;99.90
51007;DHT22;37034;47.886;-3.904;2023-12-22T11:12:28;14.00;99.90
51007;DHT22;37034;47.886;-3.904;2023-12-22T11:14:54;14.20;99.90
51007;DHT22;37034;47.886;-3.904;2023-12-22T11:17:22;14.20;99.90
51007;DHT22;37034;47.886;-3.904;2023-12-22T11:19:49;13.70;99.90
51007;DHT22;37034;47.886;-3.904;2023-12-22T11:22:17;13.40;99.90
51007;DHT22;37034;47.886;-3.904;2023-12-22T11:24:46;13.30;99.90
51007;DHT22;37034;47.886;-3.904;2023-12-22T11:27:13;13.50;99.90
51007;DHT22;37034;47.886;-3.904;2023-12-22T11:29:41;13.60;99.90
51007;DHT22;37034;47.886;-3.904;2023-12-22T11:32:07;13.80;99.90
51007;DHT22;37034;47.886;-3.904;2023-12-22T11:34:36;14.10;99.90
51007;DHT22;37034;47.886;-3.904;2023-12-22T11:37:03;14.00;99.90
51007;DHT22;37034;47.886;-3.904;2023-12-22T11:39:30;14.00;99.90
51007;DHT22;37034;47.886;-3.904;2023-12-22T11:41:56;14.10;99.90
51007;DHT22;37034;47.886;-3.904;2023-12-22T11:44:22;13.90;99.90
51007;DHT22;37034;47.886;-3.904;2023-12-22T11:46:48;13.80;99.90
51007;DHT22;37034;47.886;-3.904;2023-12-22T11:49:14;13.80;99.90
51007;DHT22;37034;47.886;-3.904;2023-12-22T11:51:40;13.90;99.90
51007;DHT22;37034;47.886;-3.904;2023-12-22T11:54:44;14.00;99.90
51007;DHT22;37034;47.886;-3.904;2023-12-22T11:57:28;13.70;99.90
51007;DHT22;37034;47.886;-3.904;2023-12-22T11:59:58;13.60;99.90
51007;DHT22;37034;47.886;-3.904;2023-12-22T12:02:26;13.50;99.90
51007;DHT22;37034;47.886;-3.904;2023-12-22T12:04:53;13.50;99.90
51007;DHT22;37034;47.886;-3.904;2023-12-22T12:07:41;13.70;99.90
51007;DHT22;37034;47.886;-3.904;2023-12-22T12:10:35;13.90;99.90
51007;DHT22;37034;47.886;-3.904;2023-12-22T12:13:12;13.80;99.90
51007;DHT22;37034;47.886;-3.904;2023-12-22T12:15:42;13.80;99.90
51007;DHT22;37034;47.886;-3.904;2023-12-22T12:18:08;13.80;99.90
51007;DHT22;37034;47.886;-3.904;2023-12-22T12:20:34;13.90;99.90
51007;DHT22;37034;47.886;-3.904;2023-12-22T12:23:03;13.80;99.90
51007;DHT22;37034;47.886;-3.904;2023-12-22T12:25:32;13.70;99.90
51007;DHT22;37034;47.886;-3.904;2023-12-22T12:28:05;13.90;99.90
51007;DHT22;37034;47.886;-3.904;2023-12-22T12:30:32;14.10;99.90
51007;DHT22;37034;47.886;-3.904;2023-12-22T12:33:07;14.00;99.90
51007;DHT22;37034;47.886;-3.904;2023-12-22T12:35:33;14.20;99.90
51007;DHT22;37034;47.886;-3.904;2023-12-22T12:38:03;14.00;99.90
51007;DHT22;37034;47.886;-3.904;2023-12-22T12:40:29;13.90;99.90
51007;DHT22;37034;47.886;-3.904;2023-12-22T12:42:56;14.10;99.90
51007;DHT22;37034;47.886;-3.904;2023-12-22T12:45:25;14.10;99.90
51007;DHT22;37034;47.886;-3.904;2023-12-22T12:47:58;14.00;99.90
51007;DHT22;37034;47.886;-3.904;2023-12-22T12:50:24;13.90;99.90
51007;DHT22;37034;47.886;-3.904;2023-12-22T12:52:54;14.00;99.90
51007;DHT22;37034;47.886;-3.904;2023-12-22T12:55:20;14.00;99.90
51007;DHT22;37034;47.886;-3.904;2023-12-22T12:57:53;14.10;99.90
51007;DHT22;37034;47.886;-3.904;2023-12-22T13:00:33;14.20;99.90
51007;DHT22;37034;47.886;-3.904;2023-12-22T13:03:04;14.20;99.90
51007;DHT22;37034;47.886;-3.904;2023-12-22T13:05:30;14.30;99.90
51007;DHT22;37034;47.886;-3.904;2023-12-22T13:08:12;14.30;99.90
51007;DHT22;37034;47.886;-3.904;2023-12-22T13:10:39;14.30;99.90
51007;DHT22;37034;47.886;-3.904;2023-12-22T13:13:06;14.30;99.90
51007;DHT22;37034;47.886;-3.904;2023-12-22T13:15:32;14.10;99.90
51007;DHT22;37034;47.886;-3.904;2023-12-22T13:17:58;13.90;99.90
51007;DHT22;37034;47.886;-3.904;2023-12-22T13:20:24;14.10;99.90
51007;DHT22;37034;47.886;-3.904;2023-12-22T13:22:50;14.00;99.90
51007;DHT22;37034;47.886;-3.904;2023-12-22T13:25:16;13.90;99.90
51007;DHT22;37034;47.886;-3.904;2023-12-22T13:27:50;14.10;99.90
51007;DHT22;37034;47.886;-3.904;2023-12-22T13:30:34;14.10;99.90
51007;DHT22;37034;47.886;-3.904;2023-12-22T13:33:06;14.20;99.90
51007;DHT22;37034;47.886;-3.904;2023-12-22T13:35:32;14.30;99.90
51007;DHT22;37034;47.886;-3.904;2023-12-22T13:38:01;14.20;99.90
51007;DHT22;37034;47.886;-3.904;2023-12-22T13:40:27;14.30;99.90
51007;DHT22;37034;47.886;-3.904;2023-12-22T13:42:56;14.40;99.90
51007;DHT22;37034;47.886;-3.904;2023-12-22T13:45:27;14.60;99.90
51007;DHT22;37034;47.886;-3.904;2023-12-22T13:47:53;14.80;99.90
51007;DHT22;37034;47.886;-3.904;2023-12-22T13:50:19;14.70;99.90
51007;DHT22;37034;47.886;-3.904;2023-12-22T13:52:48;14.70;99.90
51007;DHT22;37034;47.886;-3.904;2023-12-22T13:55:17;14.80;99.90
51007;DHT22;37034;47.886;-3.904;2023-12-22T13:57:44;14.60;99.90
51007;DHT22;37034;47.886;-3.904;2023-12-22T14:02:45;14.50;99.90
51007;DHT22;37034;47.886;-3.904;2023-12-22T14:05:10;14.70;99.90
51007;DHT22;37034;47.886;-3.904;2023-12-22T14:07:36;14.80;99.90
51007;DHT22;37034;47.886;-3.904;2023-12-22T14:10:08;14.70;99.90
51007;DHT22;37034;47.886;-3.904;2023-12-22T14:12:35;14.70;99.90
51007;DHT22;37034;47.886;-3.904;2023-12-22T14:15:12;14.60;99.90
51007;DHT22;37034;47.886;-3.904;2023-12-22T14:17:38;14.50;99.90
51007;DHT22;37034;47.886;-3.904;2023-12-22T14:20:05;14.50;99.90
51007;DHT22;37034;47.886;-3.904;2023-12-22T14:22:32;14.40;99.90
51007;DHT22;37034;47.886;-3.904;2023-12-22T14:24:57;14.60;99.90
51007;DHT22;37034;47.886;-3.904;2023-12-22T14:27:23;14.80;99.90
51007;DHT22;37034;47.886;-3.904;2023-12-22T14:29:49;14.90;99.90
51007;DHT22;37034;47.886;-3.904;2023-12-22T14:32:14;14.90;99.90
51007;DHT22;37034;47.886;-3.904;2023-12-22T14:34:40;14.70;99.90
51007;DHT22;37034;47.886;-3.904;2023-12-22T14:37:06;14.50;99.90
51007;DHT22;37034;47.886;-3.904;2023-12-22T14:39:32;14.50;99.90
51007;DHT22;37034;47.886;-3.904;2023-12-22T14:41:59;14.40;99.90
51007;DHT22;37034;47.886;-3.904;2023-12-22T14:44:24;14.40;99.90
51007;DHT22;37034;47.886;-3.904;2023-12-22T14:46:50;14.30;99.90
51007;DHT22;37034;47.886;-3.904;2023-12-22T14:49:16;14.20;99.90
51007;DHT22;37034;47.886;-3.904;2023-12-22T14:51:42;14.30;99.90
51007;DHT22;37034;47.886;-3.904;2023-12-22T14:54:08;14.10;99.90
51007;DHT22;37034;47.886;-3.904;2023-12-22T14:56:39;14.10;99.90
51007;DHT22;37034;47.886;-3.904;2023-12-22T14:59:09;14.00;99.90
51007;DHT22;37034;47.886;-3.904;2023-12-22T15:01:35;14.10;99.90
51007;DHT22;37034;47.886;-3.904;2023-12-22T15:04:01;14.20;99.90
51007;DHT22;37034;47.886;-3.904;2023-12-22T15:06:28;14.20;99.90
51007;DHT22;37034;47.886;-3.904;2023-12-22T15:08:54;14.30;99.90
51007;DHT22;37034;47.886;-3.904;2023-12-22T15:11:20;14.40;99.90
51007;DHT22;37034;47.886;-3.904;2023-12-22T15:13:46;14.40;99.90
51007;DHT22;37034;47.886;-3.904;2023-12-22T15:16:11;14.50;99.90
51007;DHT22;37034;47.886;-3.904;2023-12-22T15:18:37;14.60;99.90
51007;DHT22;37034;47.886;-3.904;2023-12-22T15:21:03;14.60;99.90